sensor_id;sensor_type;location;lat;lon;timestamp;temperature;humidity
51035;DHT22;37062;52.546;13.230;2023-04-03T00:01:47;3.00;99.90
51035;DHT22;37062;52.546;13.230;2023-04-03T00:04:16;3.00;99.90
51035;DHT22;37062;52.546;13.230;2023-04-03T00:06:44;3.00;99.90
51035;DHT22;37062;52.546;13.230;2023-04-03T00:09:13;3.00;99.90
51035;DHT22;37062;52.546;13.230;2023-04-03T00:11:42;2.90;99.90
51035;DHT22;37062;52.546;13.230;2023-04-03T00:14:11;2.90;99.90
51035;DHT22;37062;52.546;13.230;2023-04-03T00:16:39;2.90;99.90
51035;DHT22;37062;52.546;13.230;2023-04-03T00:19:08;2.90;99.90
51035;DHT22;37062;52.546;13.230;2023-04-03T00:21:38;2.90;99.90
51035;DHT22;37062;52.546;13.230;2023-04-03T00:24:07;2.90;99.90
51035;DHT22;37062;52.546;13.230;2023-04-03T00:26:35;2.80;99.90
51035;DHT22;37062;52.546;13.230;2023-04-03T00:29:05;2.90;99.90
51035;DHT22;37062;52.546;13.230;2023-04-03T00:31:33;2.90;99.90
51035;DHT22;37062;52.546;13.230;2023-04-03T00:34:02;2.90;99.90
51035;DHT22;37062;52.546;13.230;2023-04-03T00:36:30;2.90;99.90
51035;DHT22;37062;52.546;13.230;2023-04-03T00:38:58;2.90;99.90
51035;DHT22;37062;52.546;13.230;2023-04-03T00:41:27;2.90;99.90
51035;DHT22;37062;52.546;13.230;2023-04-03T00:43:55;2.90;99.90
51035;DHT22;37062;52.546;13.230;2023-04-03T00:46:25;2.80;99.90
51035;DHT22;37062;52.546;13.230;2023-04-03T00:48:53;2.80;99.90
51035;DHT22;37062;52.546;13.230;2023-04-03T00:51:24;2.90;99.90
51035;DHT22;37062;52.546;13.230;2023-04-03T00:53:55;2.90;99.90
51035;DHT22;37062;52.546;13.230;2023-04-03T00:56:27;2.90;99.90
51035;DHT22;37062;52.546;13.230;2023-04-03T00:59:00;2.90;99.90
51035;DHT22;37062;52.546;13.230;2023-04-03T01:01:31;2.90;99.90
51035;DHT22;37062;52.546;13.230;2023-04-03T01:04:00;2.80;99.90
51035;DHT22;37062;52.546;13.230;2023-04-03T01:06:34;2.80;99.90
51035;DHT22;37062;52.546;13.230;2023-04-03T01:09:06;2.80;99.90
51035;DHT22;37062;52.546;13.230;2023-04-03T01:11:35;2.80;99.90
51035;DHT22;37062;52.546;13.230;2023-04-03T01:14:03;2.80;99.90
51035;DHT22;37062;52.546;13.230;2023-04-03T01:16:34;2.80;99.90
51035;DHT22;37062;52.546;13.230;2023-04-03T01:19:03;2.80;99.90
51035;DHT22;37062;52.546;13.230;2023-04-03T01:21:58;2.80;99.90
51035;DHT22;37062;52.546;13.230;2023-04-03T01:24:34;2.80;99.90
51035;DHT22;37062;52.546;13.230;2023-04-03T01:27:07;2.80;99.90
51035;DHT22;37062;52.546;13.230;2023-04-03T01:29:37;2.80;99.90
51035;DHT22;37062;52.546;13.230;2023-04-03T01:32:07;2.80;99.90
51035;DHT22;37062;52.546;13.230;2023-04-03T01:34:37;2.70;99.90
51035;DHT22;37062;52.546;13.230;2023-04-03T01:37:05;2.70;99.90
51035;DHT22;37062;52.546;13.230;2023-04-03T01:39:34;2.70;99.90
51035;DHT22;37062;52.546;13.230;2023-04-03T01:42:03;2.70;99.90
51035;DHT22;37062;52.546;13.230;2023-04-03T01:44:36;2.80;99.90
51035;DHT22;37062;52.546;13.230;2023-04-03T01:47:07;2.80;99.90
51035;DHT22;37062;52.546;13.230;2023-04-03T01:49:37;2.80;99.90
51035;DHT22;37062;52.546;13.230;2023-04-03T01:52:06;2.80;99.90
51035;DHT22;37062;52.546;13.230;2023-04-03T01:54:34;2.80;99.90
51035;DHT22;37062;52.546;13.230;2023-04-03T01:57:02;2.80;99.90
51035;DHT22;37062;52.546;13.230;2023-04-03T01:59:31;2.70;99.90
51035;DHT22;37062;52.546;13.230;2023-04-03T02:02:00;2.70;99.90
51035;DHT22;37062;52.546;13.230;2023-04-03T02:04:30;2.60;99.90
51035;DHT22;37062;52.546;13.230;2023-04-03T02:06:58;2.60;99.90
51035;DHT22;37062;52.546;13.230;2023-04-03T02:09:28;2.60;99.90
51035;DHT22;37062;52.546;13.230;2023-04-03T02:11:57;2.60;99.90
51035;DHT22;37062;52.546;13.230;2023-04-03T02:14:25;2.60;99.90
51035;DHT22;37062;52.546;13.230;2023-04-03T02:16:54;2.60;99.90
51035;DHT22;37062;52.546;13.230;2023-04-03T02:19:22;2.60;99.90
51035;DHT22;37062;52.546;13.230;2023-04-03T02:21:52;2.60;99.90
51035;DHT22;37062;52.546;13.230;2023-04-03T02:24:20;2.60;99.90
51035;DHT22;37062;52.546;13.230;2023-04-03T02:26:49;2.60;99.90
51035;DHT22;37062;52.546;13.230;2023-04-03T02:29:18;2.60;99.90
51035;DHT22;37062;52.546;13.230;2023-04-03T02:31:47;2.50;99.90
51035;DHT22;37062;52.546;13.230;2023-04-03T02:34:16;2.50;99.90
51035;DHT22;37062;52.546;13.230;2023-04-03T02:36:45;2.30;99.90
51035;DHT22;37062;52.546;13.230;2023-04-03T02:39:16;2.20;99.90
51035;DHT22;37062;52.546;13.230;2023-04-03T02:41:45;2.10;99.90
51035;DHT22;37062;52.546;13.230;2023-04-03T02:44:18;2.10;99.90
51035;DHT22;37062;52.546;13.230;2023-04-03T02:46:47;2.00;99.90
51035;DHT22;37062;52.546;13.230;2023-04-03T02:49:16;2.10;99.90
51035;DHT22;37062;52.546;13.230;2023-04-03T02:51:44;2.00;99.90
51035;DHT22;37062;52.546;13.230;2023-04-03T02:54:13;2.00;99.90
51035;DHT22;37062;52.546;13.230;2023-04-03T02:56:47;2.00;99.90
51035;DHT22;37062;52.546;13.230;2023-04-03T02:59:16;2.00;99.90
51035;DHT22;37062;52.546;13.230;2023-04-03T03:01:44;2.00;99.90
51035;DHT22;37062;52.546;13.230;2023-04-03T03:04:12;2.00;99.90
51035;DHT22;37062;52.546;13.230;2023-04-03T03:06:41;2.00;99.90
51035;DHT22;37062;52.546;13.230;2023-04-03T03:09:11;1.90;99.90
51035;DHT22;37062;52.546;13.230;2023-04-03T03:11:42;1.90;99.90
51035;DHT22;37062;52.546;13.230;2023-04-03T03:14:11;1.90;99.90
51035;DHT22;37062;52.546;13.230;2023-04-03T03:16:39;1.80;99.90
51035;DHT22;37062;52.546;13.230;2023-04-03T03:19:08;1.70;99.90
51035;DHT22;37062;52.546;13.230;2023-04-03T03:21:37;1.60;99.90
51035;DHT22;37062;52.546;13.230;2023-04-03T03:24:06;1.50;99.90
51035;DHT22;37062;52.546;13.230;2023-04-03T03:26:34;1.50;99.90
51035;DHT22;37062;52.546;13.230;2023-04-03T03:29:03;1.40;99.90
51035;DHT22;37062;52.546;13.230;2023-04-03T03:31:33;1.40;99.90
51035;DHT22;37062;52.546;13.230;2023-04-03T03:34:01;1.30;99.90
51035;DHT22;37062;52.546;13.230;2023-04-03T03:36:30;1.30;99.90
51035;DHT22;37062;52.546;13.230;2023-04-03T03:38:58;1.30;99.90
51035;DHT22;37062;52.546;13.230;2023-04-03T03:41:27;1.30;99.90
51035;DHT22;37062;52.546;13.230;2023-04-03T03:43:56;1.30;99.90
51035;DHT22;37062;52.546;13.230;2023-04-03T03:46:28;1.30;99.90
51035;DHT22;37062;52.546;13.230;2023-04-03T03:48:58;1.30;99.90
51035;DHT22;37062;52.546;13.230;2023-04-03T03:51:29;1.30;99.90
51035;DHT22;37062;52.546;13.230;2023-04-03T03:53:57;1.20;99.90
51035;DHT22;37062;52.546;13.230;2023-04-03T03:56:26;1.30;99.90
51035;DHT22;37062;52.546;13.230;2023-04-03T03:58:55;1.20;99.90
51035;DHT22;37062;52.546;13.230;2023-04-03T04:01:23;1.20;99.90
51035;DHT22;37062;52.546;13.230;2023-04-03T04:03:52;1.20;99.90
51035;DHT22;37062;52.546;13.230;2023-04-03T04:06:28;1.20;99.90
51035;DHT22;37062;52.546;13.230;2023-04-03T04:09:01;1.10;99.90
51035;DHT22;37062;52.546;13.230;2023-04-03T04:11:31;1.10;99.90
51035;DHT22;37062;52.546;13.230;2023-04-03T04:14:01;1.10;99.90
51035;DHT22;37062;52.546;13.230;2023-04-03T04:16:30;1.10;99.90
51035;DHT22;37062;52.546;13.230;2023-04-03T04:19:04;1.10;99.90
51035;DHT22;37062;52.546;13.230;2023-04-03T04:21:37;1.10;99.90
51035;DHT22;37062;52.546;13.230;2023-04-03T04:24:07;1.10;99.90
51035;DHT22;37062;52.546;13.230;2023-04-03T04:26:37;1.10;99.90
51035;DHT22;37062;52.546;13.230;2023-04-03T04:29:09;1.10;99.90
51035;DHT22;37062;52.546;13.230;2023-04-03T04:31:38;1.20;99.90
51035;DHT22;37062;52.546;13.230;2023-04-03T04:34:07;1.20;99.90
51035;DHT22;37062;52.546;13.230;2023-04-03T04:36:37;1.20;99.90
51035;DHT22;37062;52.546;13.230;2023-04-03T04:39:06;1.20;99.90
51035;DHT22;37062;52.546;13.230;2023-04-03T04:41:34;1.30;99.90
51035;DHT22;37062;52.546;13.230;2023-04-03T04:44:04;1.30;99.90
51035;DHT22;37062;52.546;13.230;2023-04-03T04:46:33;1.30;99.90
51035;DHT22;37062;52.546;13.230;2023-04-03T04:49:03;1.30;99.90
51035;DHT22;37062;52.546;13.230;2023-04-03T04:51:33;1.30;99.90
51035;DHT22;37062;52.546;13.230;2023-04-03T04:54:20;1.40;99.90
51035;DHT22;37062;52.546;13.230;2023-04-03T04:56:49;1.40;99.90
51035;DHT22;37062;52.546;13.230;2023-04-03T04:59:18;1.50;99.90
51035;DHT22;37062;52.546;13.230;2023-04-03T05:01:48;1.40;99.90
51035;DHT22;37062;52.546;13.230;2023-04-03T05:04:17;1.40;99.90
51035;DHT22;37062;52.546;13.230;2023-04-03T05:06:49;1.40;99.90
51035;DHT22;37062;52.546;13.230;2023-04-03T05:09:23;1.40;99.90
51035;DHT22;37062;52.546;13.230;2023-04-03T05:11:52;1.60;99.90
51035;DHT22;37062;52.546;13.230;2023-04-03T05:14:24;1.70;99.90
51035;DHT22;37062;52.546;13.230;2023-04-03T05:16:53;1.80;99.90
51035;DHT22;37062;52.546;13.230;2023-04-03T05:19:25;2.10;99.90
51035;DHT22;37062;52.546;13.230;2023-04-03T05:21:54;2.60;99.90
51035;DHT22;37062;52.546;13.230;2023-04-03T05:24:24;3.00;99.90
51035;DHT22;37062;52.546;13.230;2023-04-03T05:26:53;3.40;99.90
51035;DHT22;37062;52.546;13.230;2023-04-03T05:29:21;3.70;99.90
51035;DHT22;37062;52.546;13.230;2023-04-03T05:31:50;4.10;99.90
51035;DHT22;37062;52.546;13.230;2023-04-03T05:34:19;4.50;99.90
51035;DHT22;37062;52.546;13.230;2023-04-03T05:36:51;4.80;99.90
51035;DHT22;37062;52.546;13.230;2023-04-03T05:39:19;5.10;99.90
51035;DHT22;37062;52.546;13.230;2023-04-03T05:41:49;5.20;99.90
51035;DHT22;37062;52.546;13.230;2023-04-03T05:44:18;5.30;99.90
51035;DHT22;37062;52.546;13.230;2023-04-03T05:46:47;5.30;99.90
51035;DHT22;37062;52.546;13.230;2023-04-03T05:49:16;5.30;99.90
51035;DHT22;37062;52.546;13.230;2023-04-03T05:51:44;5.30;99.90
51035;DHT22;37062;52.546;13.230;2023-04-03T05:54:24;5.30;99.90
51035;DHT22;37062;52.546;13.230;2023-04-03T05:56:59;5.60;99.90
51035;DHT22;37062;52.546;13.230;2023-04-03T05:59:28;5.50;99.90
51035;DHT22;37062;52.546;13.230;2023-04-03T06:01:58;5.40;99.90
51035;DHT22;37062;52.546;13.230;2023-04-03T06:04:28;5.90;99.90
51035;DHT22;37062;52.546;13.230;2023-04-03T06:06:58;6.50;99.90
51035;DHT22;37062;52.546;13.230;2023-04-03T06:09:27;7.00;99.90
51035;DHT22;37062;52.546;13.230;2023-04-03T06:11:59;7.30;99.90
51035;DHT22;37062;52.546;13.230;2023-04-03T06:14:29;7.40;99.90
51035;DHT22;37062;52.546;13.230;2023-04-03T06:17:01;7.20;99.90
51035;DHT22;37062;52.546;13.230;2023-04-03T06:19:30;7.20;99.90
51035;DHT22;37062;52.546;13.230;2023-04-03T06:21:59;7.30;99.90
51035;DHT22;37062;52.546;13.230;2023-04-03T06:24:27;7.60;99.90
51035;DHT22;37062;52.546;13.230;2023-04-03T06:26:56;7.80;99.90
51035;DHT22;37062;52.546;13.230;2023-04-03T06:29:25;8.10;99.90
51035;DHT22;37062;52.546;13.230;2023-04-03T06:31:54;8.30;99.90
51035;DHT22;37062;52.546;13.230;2023-04-03T06:34:22;8.10;99.90
51035;DHT22;37062;52.546;13.230;2023-04-03T06:36:50;8.20;99.90
51035;DHT22;37062;52.546;13.230;2023-04-03T06:39:21;8.30;99.90
51035;DHT22;37062;52.546;13.230;2023-04-03T06:41:50;8.40;99.90
51035;DHT22;37062;52.546;13.230;2023-04-03T06:44:28;8.50;99.90
51035;DHT22;37062;52.546;13.230;2023-04-03T06:46:56;8.60;99.90
51035;DHT22;37062;52.546;13.230;2023-04-03T06:49:25;8.40;99.90
51035;DHT22;37062;52.546;13.230;2023-04-03T06:51:53;8.20;99.90
51035;DHT22;37062;52.546;13.230;2023-04-03T06:54:22;8.50;99.90
51035;DHT22;37062;52.546;13.230;2023-04-03T06:56:50;8.50;99.90
51035;DHT22;37062;52.546;13.230;2023-04-03T06:59:19;8.40;99.90
51035;DHT22;37062;52.546;13.230;2023-04-03T07:01:48;8.20;99.90
51035;DHT22;37062;52.546;13.230;2023-04-03T07:04:17;8.20;99.90
51035;DHT22;37062;52.546;13.230;2023-04-03T07:06:47;8.30;99.90
51035;DHT22;37062;52.546;13.230;2023-04-03T07:09:16;8.80;99.90
51035;DHT22;37062;52.546;13.230;2023-04-03T07:11:44;8.90;99.90
51035;DHT22;37062;52.546;13.230;2023-04-03T07:14:13;9.10;99.90
51035;DHT22;37062;52.546;13.230;2023-04-03T07:16:42;9.60;99.90
51035;DHT22;37062;52.546;13.230;2023-04-03T07:19:12;9.80;99.90
51035;DHT22;37062;52.546;13.230;2023-04-03T07:21:41;9.70;99.90
51035;DHT22;37062;52.546;13.230;2023-04-03T07:24:10;9.30;99.90
51035;DHT22;37062;52.546;13.230;2023-04-03T07:26:42;9.10;99.90
51035;DHT22;37062;52.546;13.230;2023-04-03T07:29:11;8.40;99.90
51035;DHT22;37062;52.546;13.230;2023-04-03T07:31:41;8.30;99.90
51035;DHT22;37062;52.546;13.230;2023-04-03T07:34:11;8.40;99.90
51035;DHT22;37062;52.546;13.230;2023-04-03T07:36:40;7.80;99.90
51035;DHT22;37062;52.546;13.230;2023-04-03T07:39:08;7.10;99.90
51035;DHT22;37062;52.546;13.230;2023-04-03T07:41:38;7.00;99.90
51035;DHT22;37062;52.546;13.230;2023-04-03T07:44:09;7.20;99.90
51035;DHT22;37062;52.546;13.230;2023-04-03T07:46:37;7.30;99.90
51035;DHT22;37062;52.546;13.230;2023-04-03T07:49:06;7.30;99.90
51035;DHT22;37062;52.546;13.230;2023-04-03T07:51:36;7.30;99.90
51035;DHT22;37062;52.546;13.230;2023-04-03T07:54:04;7.40;99.90
51035;DHT22;37062;52.546;13.230;2023-04-03T07:56:33;7.10;99.90
51035;DHT22;37062;52.546;13.230;2023-04-03T07:59:02;7.00;99.90
51035;DHT22;37062;52.546;13.230;2023-04-03T08:01:30;6.80;99.90
51035;DHT22;37062;52.546;13.230;2023-04-03T08:04:00;6.90;99.90
51035;DHT22;37062;52.546;13.230;2023-04-03T08:06:30;6.90;99.90
51035;DHT22;37062;52.546;13.230;2023-04-03T08:09:14;7.00;99.90
51035;DHT22;37062;52.546;13.230;2023-04-03T08:11:43;6.80;99.90
51035;DHT22;37062;52.546;13.230;2023-04-03T08:14:12;6.60;99.90
51035;DHT22;37062;52.546;13.230;2023-04-03T08:16:45;6.50;99.90
51035;DHT22;37062;52.546;13.230;2023-04-03T08:19:16;6.60;99.90
51035;DHT22;37062;52.546;13.230;2023-04-03T08:21:53;6.70;99.90
51035;DHT22;37062;52.546;13.230;2023-04-03T08:24:23;6.70;99.90
51035;DHT22;37062;52.546;13.230;2023-04-03T08:26:52;6.50;99.90
51035;DHT22;37062;52.546;13.230;2023-04-03T08:29:20;6.30;99.90
51035;DHT22;37062;52.546;13.230;2023-04-03T08:31:49;6.30;99.90
51035;DHT22;37062;52.546;13.230;2023-04-03T08:34:17;6.40;99.90
51035;DHT22;37062;52.546;13.230;2023-04-03T08:36:46;6.40;99.90
51035;DHT22;37062;52.546;13.230;2023-04-03T08:39:14;6.60;99.90
51035;DHT22;37062;52.546;13.230;2023-04-03T08:41:45;6.70;99.90
51035;DHT22;37062;52.546;13.230;2023-04-03T08:44:18;6.80;99.90
51035;DHT22;37062;52.546;13.230;2023-04-03T08:47:10;6.70;99.90
51035;DHT22;37062;52.546;13.230;2023-04-03T08:49:41;6.70;99.90
51035;DHT22;37062;52.546;13.230;2023-04-03T08:52:18;6.50;99.90
51035;DHT22;37062;52.546;13.230;2023-04-03T08:54:52;6.30;99.90
51035;DHT22;37062;52.546;13.230;2023-04-03T08:57:29;6.30;99.90
51035;DHT22;37062;52.546;13.230;2023-04-03T09:00:15;6.50;99.90
51035;DHT22;37062;52.546;13.230;2023-04-03T09:02:46;6.50;99.90
51035;DHT22;37062;52.546;13.230;2023-04-03T09:05:17;6.50;99.90
51035;DHT22;37062;52.546;13.230;2023-04-03T09:07:49;6.60;99.90
51035;DHT22;37062;52.546;13.230;2023-04-03T09:10:27;6.80;99.90
51035;DHT22;37062;52.546;13.230;2023-04-03T09:13:03;6.90;99.90
51035;DHT22;37062;52.546;13.230;2023-04-03T09:15:34;6.90;99.90
51035;DHT22;37062;52.546;13.230;2023-04-03T09:18:12;6.90;99.90
51035;DHT22;37062;52.546;13.230;2023-04-03T09:20:46;7.10;99.90
51035;DHT22;37062;52.546;13.230;2023-04-03T09:23:23;7.50;99.90
51035;DHT22;37062;52.546;13.230;2023-04-03T09:25:57;7.70;99.90
51035;DHT22;37062;52.546;13.230;2023-04-03T09:28:30;7.80;99.90
51035;DHT22;37062;52.546;13.230;2023-04-03T09:31:20;7.50;99.90
51035;DHT22;37062;52.546;13.230;2023-04-03T09:33:50;7.30;99.90
51035;DHT22;37062;52.546;13.230;2023-04-03T09:36:40;7.20;99.90
51035;DHT22;37062;52.546;13.230;2023-04-03T09:39:11;7.00;99.90
51035;DHT22;37062;52.546;13.230;2023-04-03T09:41:40;7.20;99.90
51035;DHT22;37062;52.546;13.230;2023-04-03T09:44:23;7.30;99.90
51035;DHT22;37062;52.546;13.230;2023-04-03T09:46:53;7.40;99.90
51035;DHT22;37062;52.546;13.230;2023-04-03T09:49:21;7.50;99.90
51035;DHT22;37062;52.546;13.230;2023-04-03T09:51:49;7.50;99.90
51035;DHT22;37062;52.546;13.230;2023-04-03T09:54:36;7.50;99.90
51035;DHT22;37062;52.546;13.230;2023-04-03T09:57:12;7.50;99.90
51035;DHT22;37062;52.546;13.230;2023-04-03T09:59:46;7.50;99.90
51035;DHT22;37062;52.546;13.230;2023-04-03T10:02:37;7.60;99.90
51035;DHT22;37062;52.546;13.230;2023-04-03T10:05:28;7.60;99.90
51035;DHT22;37062;52.546;13.230;2023-04-03T10:08:18;7.50;99.90
51035;DHT22;37062;52.546;13.230;2023-04-03T10:10:48;7.50;99.90
51035;DHT22;37062;52.546;13.230;2023-04-03T10:13:32;7.60;99.90
51035;DHT22;37062;52.546;13.230;2023-04-03T10:16:20;7.70;99.90
51035;DHT22;37062;52.546;13.230;2023-04-03T10:18:59;7.40;99.90
51035;DHT22;37062;52.546;13.230;2023-04-03T10:21:37;7.20;99.90
51035;DHT22;37062;52.546;13.230;2023-04-03T10:24:12;7.20;99.90
51035;DHT22;37062;52.546;13.230;2023-04-03T10:26:47;7.50;99.90
51035;DHT22;37062;52.546;13.230;2023-04-03T10:29:27;7.80;99.90
51035;DHT22;37062;52.546;13.230;2023-04-03T10:32:25;8.00;99.90
51035;DHT22;37062;52.546;13.230;2023-04-03T10:35:02;8.00;99.90
51035;DHT22;37062;52.546;13.230;2023-04-03T10:37:41;8.00;99.90
51035;DHT22;37062;52.546;13.230;2023-04-03T10:40:24;8.00;99.90
51035;DHT22;37062;52.546;13.230;2023-04-03T10:43:03;7.90;99.90
51035;DHT22;37062;52.546;13.230;2023-04-03T10:45:45;8.20;99.90
51035;DHT22;37062;52.546;13.230;2023-04-03T10:48:25;8.30;99.90
51035;DHT22;37062;52.546;13.230;2023-04-03T10:51:01;8.20;99.90
51035;DHT22;37062;52.546;13.230;2023-04-03T10:53:39;8.20;99.90
51035;DHT22;37062;52.546;13.230;2023-04-03T10:56:13;8.10;99.90
51035;DHT22;37062;52.546;13.230;2023-04-03T10:58:45;8.00;99.90
51035;DHT22;37062;52.546;13.230;2023-04-03T11:01:19;8.20;99.90
51035;DHT22;37062;52.546;13.230;2023-04-03T11:03:52;8.30;99.90
51035;DHT22;37062;52.546;13.230;2023-04-03T11:06:23;8.40;99.90
51035;DHT22;37062;52.546;13.230;2023-04-03T11:08:55;8.60;99.90
51035;DHT22;37062;52.546;13.230;2023-04-03T11:11:27;8.70;99.90
51035;DHT22;37062;52.546;13.230;2023-04-03T11:14:01;8.70;99.90
51035;DHT22;37062;52.546;13.230;2023-04-03T11:16:33;8.50;99.90
51035;DHT22;37062;52.546;13.230;2023-04-03T11:19:20;8.50;99.90
51035;DHT22;37062;52.546;13.230;2023-04-03T11:21:54;8.20;99.90
51035;DHT22;37062;52.546;13.230;2023-04-03T11:24:27;8.10;99.90
51035;DHT22;37062;52.546;13.230;2023-04-03T11:26:59;8.10;99.90
51035;DHT22;37062;52.546;13.230;2023-04-03T11:29:36;8.00;99.90
51035;DHT22;37062;52.546;13.230;2023-04-03T11:32:15;8.10;99.90
51035;DHT22;37062;52.546;13.230;2023-04-03T11:34:51;8.10;99.90
51035;DHT22;37062;52.546;13.230;2023-04-03T11:37:27;8.10;99.90
51035;DHT22;37062;52.546;13.230;2023-04-03T11:39:59;8.20;99.90
51035;DHT22;37062;52.546;13.230;2023-04-03T11:42:33;8.20;99.90
51035;DHT22;37062;52.546;13.230;2023-04-03T11:45:29;8.10;99.90
51035;DHT22;37062;52.546;13.230;2023-04-03T11:48:01;8.10;99.90
51035;DHT22;37062;52.546;13.230;2023-04-03T11:50:48;8.20;99.90
51035;DHT22;37062;52.546;13.230;2023-04-03T11:53:29;8.00;99.90
51035;DHT22;37062;52.546;13.230;2023-04-03T11:56:03;7.90;99.90
51035;DHT22;37062;52.546;13.230;2023-04-03T11:58:35;7.90;99.90
51035;DHT22;37062;52.546;13.230;2023-04-03T12:01:08;7.90;99.90
51035;DHT22;37062;52.546;13.230;2023-04-03T12:10:19;8.40;99.90
51035;DHT22;37062;52.546;13.230;2023-04-03T12:12:59;8.40;99.90
51035;DHT22;37062;52.546;13.230;2023-04-03T12:15:54;8.40;99.90
51035;DHT22;37062;52.546;13.230;2023-04-03T12:18:55;8.30;99.90
51035;DHT22;37062;52.546;13.230;2023-04-03T12:21:24;8.20;99.90
51035;DHT22;37062;52.546;13.230;2023-04-03T12:24:26;8.10;99.90
51035;DHT22;37062;52.546;13.230;2023-04-03T12:27:09;8.20;99.90
51035;DHT22;37062;52.546;13.230;2023-04-03T12:29:47;7.90;99.90
51035;DHT22;37062;52.546;13.230;2023-04-03T12:32:26;7.80;99.90
51035;DHT22;37062;52.546;13.230;2023-04-03T12:35:09;7.70;99.90
51035;DHT22;37062;52.546;13.230;2023-04-03T12:37:48;7.70;99.90
51035;DHT22;37062;52.546;13.230;2023-04-03T12:40:25;7.70;99.90
51035;DHT22;37062;52.546;13.230;2023-04-03T12:43:06;7.70;99.90
51035;DHT22;37062;52.546;13.230;2023-04-03T12:45:42;7.70;99.90
51035;DHT22;37062;52.546;13.230;2023-04-03T12:48:15;7.80;99.90
51035;DHT22;37062;52.546;13.230;2023-04-03T12:50:46;7.80;99.90
51035;DHT22;37062;52.546;13.230;2023-04-03T12:53:18;7.90;99.90
51035;DHT22;37062;52.546;13.230;2023-04-03T12:55:47;8.00;99.90
51035;DHT22;37062;52.546;13.230;2023-04-03T12:58:22;8.10;99.90
51035;DHT22;37062;52.546;13.230;2023-04-03T13:01:02;7.90;99.90
51035;DHT22;37062;52.546;13.230;2023-04-03T13:03:31;7.90;99.90
51035;DHT22;37062;52.546;13.230;2023-04-03T13:06:01;7.90;99.90
51035;DHT22;37062;52.546;13.230;2023-04-03T13:08:31;8.00;99.90
51035;DHT22;37062;52.546;13.230;2023-04-03T13:11:01;8.00;99.90
51035;DHT22;37062;52.546;13.230;2023-04-03T13:13:32;7.90;99.90
51035;DHT22;37062;52.546;13.230;2023-04-03T13:16:08;7.80;99.90
51035;DHT22;37062;52.546;13.230;2023-04-03T13:18:37;7.80;99.90
51035;DHT22;37062;52.546;13.230;2023-04-03T13:21:12;7.70;99.90
51035;DHT22;37062;52.546;13.230;2023-04-03T13:23:45;7.80;99.90
51035;DHT22;37062;52.546;13.230;2023-04-03T13:26:20;7.70;99.90
51035;DHT22;37062;52.546;13.230;2023-04-03T13:28:50;7.70;99.90
51035;DHT22;37062;52.546;13.230;2023-04-03T13:31:25;7.90;99.90
51035;DHT22;37062;52.546;13.230;2023-04-03T13:33:58;7.90;99.90
51035;DHT22;37062;52.546;13.230;2023-04-03T13:36:29;8.00;99.90
51035;DHT22;37062;52.546;13.230;2023-04-03T13:39:00;8.00;99.90
51035;DHT22;37062;52.546;13.230;2023-04-03T13:41:34;8.00;99.90
51035;DHT22;37062;52.546;13.230;2023-04-03T13:44:23;7.80;99.90
51035;DHT22;37062;52.546;13.230;2023-04-03T13:46:55;7.90;99.90
51035;DHT22;37062;52.546;13.230;2023-04-03T13:49:32;7.90;99.90
51035;DHT22;37062;52.546;13.230;2023-04-03T13:52:03;7.90;99.90
51035;DHT22;37062;52.546;13.230;2023-04-03T13:54:47;7.90;99.90
51035;DHT22;37062;52.546;13.230;2023-04-03T13:57:19;7.80;99.90
51035;DHT22;37062;52.546;13.230;2023-04-03T13:59:49;7.70;99.90
51035;DHT22;37062;52.546;13.230;2023-04-03T14:02:19;7.60;99.90
51035;DHT22;37062;52.546;13.230;2023-04-03T14:04:52;7.50;99.90
51035;DHT22;37062;52.546;13.230;2023-04-03T14:07:25;7.30;99.90
51035;DHT22;37062;52.546;13.230;2023-04-03T14:09:54;7.20;99.90
51035;DHT22;37062;52.546;13.230;2023-04-03T14:12:26;7.10;99.90
51035;DHT22;37062;52.546;13.230;2023-04-03T14:15:00;7.10;99.90
51035;DHT22;37062;52.546;13.230;2023-04-03T14:17:30;7.20;99.90
51035;DHT22;37062;52.546;13.230;2023-04-03T14:19:58;7.30;99.90
51035;DHT22;37062;52.546;13.230;2023-04-03T14:22:30;7.30;99.90
51035;DHT22;37062;52.546;13.230;2023-04-03T14:24:58;7.40;99.90
51035;DHT22;37062;52.546;13.230;2023-04-03T14:27:28;7.40;99.90
51035;DHT22;37062;52.546;13.230;2023-04-03T14:30:00;7.40;99.90
51035;DHT22;37062;52.546;13.230;2023-04-03T14:32:30;7.30;99.90
51035;DHT22;37062;52.546;13.230;2023-04-03T14:34:58;7.30;99.90
51035;DHT22;37062;52.546;13.230;2023-04-03T14:37:29;7.20;99.90
51035;DHT22;37062;52.546;13.230;2023-04-03T14:39:59;7.30;99.90
51035;DHT22;37062;52.546;13.230;2023-04-03T14:42:29;7.40;99.90
51035;DHT22;37062;52.546;13.230;2023-04-03T14:45:00;7.40;99.90
51035;DHT22;37062;52.546;13.230;2023-04-03T14:47:30;7.40;99.90
51035;DHT22;37062;52.546;13.230;2023-04-03T14:50:00;7.40;99.90
51035;DHT22;37062;52.546;13.230;2023-04-03T14:52:31;7.70;99.90
51035;DHT22;37062;52.546;13.230;2023-04-03T14:55:00;7.70;99.90
51035;DHT22;37062;52.546;13.230;2023-04-03T14:57:29;7.80;99.90
51035;DHT22;37062;52.546;13.230;2023-04-03T15:00:00;7.80;99.90
51035;DHT22;37062;52.546;13.230;2023-04-03T15:02:31;7.70;99.90
51035;DHT22;37062;52.546;13.230;2023-04-03T15:05:02;7.60;99.90
51035;DHT22;37062;52.546;13.230;2023-04-03T15:07:34;7.60;99.90
51035;DHT22;37062;52.546;13.230;2023-04-03T15:10:14;7.60;99.90
51035;DHT22;37062;52.546;13.230;2023-04-03T15:12:44;7.60;99.90
51035;DHT22;37062;52.546;13.230;2023-04-03T15:15:15;7.60;99.90
51035;DHT22;37062;52.546;13.230;2023-04-03T15:17:44;7.60;99.90
51035;DHT22;37062;52.546;13.230;2023-04-03T15:20:14;7.60;99.90
51035;DHT22;37062;52.546;13.230;2023-04-03T15:22:43;7.70;99.90
51035;DHT22;37062;52.546;13.230;2023-04-03T15:25:11;7.60;99.90
51035;DHT22;37062;52.546;13.230;2023-04-03T15:27:40;7.50;99.90
51035;DHT22;37062;52.546;13.230;2023-04-03T15:30:15;7.50;99.90
51035;DHT22;37062;52.546;13.230;2023-04-03T15:32:44;7.50;99.90
51035;DHT22;37062;52.546;13.230;2023-04-03T15:35:12;7.40;99.90
51035;DHT22;37062;52.546;13.230;2023-04-03T15:37:41;7.20;99.90
51035;DHT22;37062;52.546;13.230;2023-04-03T15:40:10;7.20;99.90
51035;DHT22;37062;52.546;13.230;2023-04-03T15:42:39;7.20;99.90
51035;DHT22;37062;52.546;13.230;2023-04-03T15:45:08;7.20;99.90
51035;DHT22;37062;52.546;13.230;2023-04-03T15:47:39;7.20;99.90
51035;DHT22;37062;52.546;13.230;2023-04-03T15:50:08;7.10;99.90
51035;DHT22;37062;52.546;13.230;2023-04-03T15:52:36;7.00;99.90
51035;DHT22;37062;52.546;13.230;2023-04-03T15:55:05;7.00;99.90
51035;DHT22;37062;52.546;13.230;2023-04-03T15:57:34;6.90;99.90
51035;DHT22;37062;52.546;13.230;2023-04-03T16:00:09;7.00;99.90
51035;DHT22;37062;52.546;13.230;2023-04-03T16:02:39;7.10;99.90
51035;DHT22;37062;52.546;13.230;2023-04-03T16:05:09;7.20;99.90
51035;DHT22;37062;52.546;13.230;2023-04-03T16:07:40;7.20;99.90